Terminal Aerodrome Forecast
Issued by NWS

Home | Current Version | Previous Version | Text Only | Print | Product List | Glossary Off
Versions: 1 2 3 4 5 6 7 8 9 10 11 12 13 14 15 16 17 18 19 20

000
FTUS43 KMPX 212300 RRA
TAFRNH
TAF
KRNH 212339Z 2200/2224 11007KT P6SM VCSH BKN020
     FM220200 VRB03KT P6SM SCT040
     FM220500 VRB03KT 3SM BR SCT003
     FM220800 VRB03KT 1/4SM FG VV001
     FM221400 34004KT 2SM BR OVC003
     FM221600 35007KT 4SM BR OVC008
     FM221800 35007KT P6SM BKN030=

USA.gov is the U.S. government's official web portal to all federal, state and local government web resources and services.